Wetterdaten: Woche 09.03.15 - 15.03.15 (KW11)
Datum Zeit Temperatur Luftfeuchte Luftdruck Niederschlag Windrichtung Sonnenschein Solar Wind
09.03.2015 00:00 3,0 C 85 % 1022,8 hPa 0,0 l/m N-NO 0,00 h 0 W/m 2,4 km/h (1 Bft)
09.03.2015 01:00 2,2 C 85 % 1023,1 hPa 0,0 l/m N 0,00 h 0 W/m 0,0 km/h (0 Bft)
09.03.2015 02:00 1,2 C 86 % 1023,0 hPa 0,0 l/m N 0,00 h 0 W/m 0,0 km/h (0 Bft)
09.03.2015 03:00 0,4 C 87 % 1022,7 hPa 0,0 l/m N 0,00 h 0 W/m 0,4 km/h (0 Bft)
09.03.2015 04:00 0,1 C 90 % 1023,1 hPa 0,0 l/m N-NO 0,00 h 0 W/m 0,7 km/h (0 Bft)
09.03.2015 05:00 0,2 C 92 % 1023,6 hPa 0,0 l/m N 0,00 h 0 W/m 0,0 km/h (0 Bft)
09.03.2015 06:00 -0,3 C 92 % 1024,0 hPa 0,0 l/m N 0,00 h 5 W/m 0,3 km/h (0 Bft)
09.03.2015 07:00 -0,6 C 92 % 1024,5 hPa 0,0 l/m N 0,00 h 34 W/m 0,0 km/h (0 Bft)
09.03.2015 08:00 0,1 C 94 % 1025,0 hPa 0,0 l/m N 0,58 h 147 W/m 0,5 km/h (0 Bft)
09.03.2015 09:00 2,0 C 96 % 1025,2 hPa 0,0 l/m N 1,00 h 354 W/m 1,2 km/h (1 Bft)
09.03.2015 10:00 5,3 C 92 % 1025,0 hPa 0,0 l/m NO 1,00 h 486 W/m 4,5 km/h (1 Bft)
09.03.2015 11:00 8,8 C 72 % 1024,8 hPa 0,0 l/m O-NO 1,00 h 587 W/m 6,0 km/h (2 Bft)
09.03.2015 12:00 11,8 C 57 % 1024,3 hPa 0,0 l/m O 1,00 h 637 W/m 8,4 km/h (2 Bft)
09.03.2015 13:00 13,4 C 48 % 1023,6 hPa 0,0 l/m NO 1,00 h 623 W/m 10,8 km/h (2 Bft)
09.03.2015 14:00 14,5 C 43 % 1023,1 hPa 0,0 l/m O-NO 1,00 h 555 W/m 10,9 km/h (2 Bft)
09.03.2015 15:00 14,8 C 39 % 1022,9 hPa 0,0 l/m O-SO 1,00 h 445 W/m 12,5 km/h (3 Bft)
09.03.2015 16:00 14,6 C 41 % 1022,9 hPa 0,0 l/m NO 1,00 h 290 W/m 8,6 km/h (2 Bft)
09.03.2015 17:00 13,6 C 41 % 1023,1 hPa 0,0 l/m O 0,58 h 80 W/m 6,7 km/h (2 Bft)
09.03.2015 18:00 11,2 C 49 % 1023,8 hPa 0,0 l/m N 0,00 h 6 W/m 1,7 km/h (1 Bft)
09.03.2015 19:00 8,8 C 57 % 1024,1 hPa 0,0 l/m N 0,00 h 0 W/m 0,1 km/h (0 Bft)
09.03.2015 20:00 6,5 C 64 % 1024,2 hPa 0,0 l/m N 0,00 h 0 W/m 0,1 km/h (0 Bft)
09.03.2015 21:00 4,9 C 69 % 1024,2 hPa 0,0 l/m N 0,00 h 0 W/m 2,0 km/h (1 Bft)
09.03.2015 22:00 4,0 C 74 % 1024,3 hPa 0,0 l/m O 0,00 h 0 W/m 4,4 km/h (1 Bft)
09.03.2015 23:00 3,6 C 77 % 1024,4 hPa 0,0 l/m N-NW 0,00 h 0 W/m 6,8 km/h (2 Bft)
10.03.2015 00:00 3,9 C 77 % 1024,4 hPa 0,0 l/m N-NW 0,00 h 0 W/m 6,3 km/h (2 Bft)
10.03.2015 01:00 3,1 C 77 % 1024,7 hPa 0,0 l/m N 0,00 h 0 W/m 1,2 km/h (1 Bft)
10.03.2015 02:00 1,5 C 80 % 1024,5 hPa 0,0 l/m N 0,00 h 0 W/m 0,3 km/h (0 Bft)
10.03.2015 03:00 0,2 C 82 % 1024,0 hPa 0,0 l/m N 0,00 h 0 W/m 0,0 km/h (0 Bft)
10.03.2015 04:00 -0,7 C 85 % 1024,0 hPa 0,0 l/m N 0,00 h 0 W/m 0,0 km/h (0 Bft)
10.03.2015 05:00 -1,3 C 86 % 1024,8 hPa 0,0 l/m N 0,00 h 0 W/m 0,3 km/h (0 Bft)
10.03.2015 06:00 -1,6 C 88 % 1025,1 hPa 0,0 l/m N 0,00 h 8 W/m 0,0 km/h (0 Bft)
10.03.2015 07:00 -1,8 C 90 % 1025,6 hPa 0,0 l/m N 0,00 h 50 W/m 0,0 km/h (0 Bft)
10.03.2015 08:00 -0,6 C 93 % 1026,0 hPa 0,0 l/m N 1,00 h 186 W/m 0,1 km/h (0 Bft)
10.03.2015 09:00 2,2 C 94 % 1026,3 hPa 0,0 l/m S 1,00 h 343 W/m 9,4 km/h (2 Bft)
10.03.2015 10:00 6,1 C 80 % 1026,1 hPa 0,0 l/m S-SW 1,00 h 475 W/m 14,0 km/h (3 Bft)
10.03.2015 11:00 9,1 C 67 % 1025,7 hPa 0,0 l/m S-SW 1,00 h 586 W/m 13,0 km/h (3 Bft)
10.03.2015 12:00 12,1 C 57 % 1025,2 hPa 0,0 l/m S-SW 1,00 h 619 W/m 11,0 km/h (2 Bft)
10.03.2015 13:00 13,5 C 49 % 1024,4 hPa 0,0 l/m SW 0,83 h 558 W/m 9,5 km/h (2 Bft)
10.03.2015 14:00 13,4 C 47 % 1024,2 hPa 0,0 l/m W-SW 0,42 h 274 W/m 4,4 km/h (1 Bft)
10.03.2015 15:00 13,4 C 47 % 1024,1 hPa 0,0 l/m W-NW 0,00 h 160 W/m 2,9 km/h (1 Bft)
10.03.2015 16:00 13,3 C 48 % 1024,0 hPa 0,0 l/m NW 0,33 h 147 W/m 3,6 km/h (1 Bft)
10.03.2015 17:00 12,7 C 52 % 1024,0 hPa 0,0 l/m N-NO 0,17 h 58 W/m 7,9 km/h (2 Bft)
10.03.2015 18:00 11,2 C 58 % 1024,4 hPa 0,0 l/m N-NO 0,00 h 6 W/m 6,9 km/h (2 Bft)
10.03.2015 19:00 10,2 C 62 % 1025,0 hPa 0,0 l/m N 0,00 h 0 W/m 8,6 km/h (2 Bft)
10.03.2015 20:00 9,3 C 68 % 1025,3 hPa 0,0 l/m N 0,00 h 0 W/m 3,5 km/h (1 Bft)
10.03.2015 21:00 8,4 C 75 % 1025,8 hPa 0,0 l/m N 0,00 h 0 W/m 5,7 km/h (1 Bft)
10.03.2015 22:00 7,8 C 77 % 1025,8 hPa 0,0 l/m N 0,00 h 0 W/m 4,4 km/h (1 Bft)
10.03.2015 23:00 7,3 C 79 % 1025,5 hPa 0,0 l/m N 0,00 h 0 W/m 3,3 km/h (1 Bft)
11.03.2015 00:00 6,8 C 85 % 1025,4 hPa 0,2 l/m N 0,00 h 0 W/m 1,5 km/h (1 Bft)
11.03.2015 01:00 6,3 C 89 % 1025,0 hPa 0,0 l/m N 0,00 h 0 W/m 0,3 km/h (0 Bft)
11.03.2015 02:00 6,0 C 91 % 1024,8 hPa 0,0 l/m N 0,00 h 0 W/m 0,1 km/h (0 Bft)
11.03.2015 03:00 5,8 C 93 % 1024,4 hPa 0,0 l/m N 0,00 h 0 W/m 0,1 km/h (0 Bft)
11.03.2015 04:00 5,7 C 94 % 1024,3 hPa 0,2 l/m N 0,00 h 0 W/m 0,0 km/h (0 Bft)
11.03.2015 05:00 5,7 C 95 % 1024,2 hPa 0,4 l/m N 0,00 h 0 W/m 2,8 km/h (1 Bft)
11.03.2015 06:00 5,3 C 95 % 1024,8 hPa 0,0 l/m N 0,00 h 0 W/m 11,5 km/h (2 Bft)
11.03.2015 07:00 4,9 C 95 % 1025,4 hPa 0,0 l/m N 0,00 h 25 W/m 10,1 km/h (2 Bft)
11.03.2015 08:00 4,9 C 95 % 1025,8 hPa 0,0 l/m N-NO 0,00 h 71 W/m 6,4 km/h (2 Bft)
11.03.2015 09:00 5,7 C 89 % 1026,0 hPa 0,0 l/m N-NO 0,08 h 166 W/m 13,3 km/h (3 Bft)
11.03.2015 10:00 6,6 C 79 % 1025,8 hPa 0,0 l/m N-NO 0,33 h 312 W/m 13,2 km/h (3 Bft)
11.03.2015 11:00 7,6 C 70 % 1025,6 hPa 0,0 l/m N-NO 0,25 h 291 W/m 13,8 km/h (3 Bft)
11.03.2015 12:00 8,5 C 59 % 1025,4 hPa 0,0 l/m N-NO 0,67 h 515 W/m 14,1 km/h (3 Bft)
11.03.2015 13:00 9,4 C 50 % 1025,0 hPa 0,0 l/m N-NO 0,92 h 596 W/m 14,5 km/h (3 Bft)
11.03.2015 14:00 9,6 C 44 % 1024,6 hPa 0,0 l/m N-NO 0,92 h 524 W/m 14,2 km/h (3 Bft)
11.03.2015 15:00 9,5 C 43 % 1024,5 hPa 0,0 l/m NO 0,50 h 294 W/m 10,9 km/h (2 Bft)
11.03.2015 16:00 8,8 C 46 % 1024,7 hPa 0,0 l/m N-NO 0,42 h 176 W/m 13,0 km/h (3 Bft)
11.03.2015 17:00 7,8 C 50 % 1025,1 hPa 0,0 l/m N-NO 0,50 h 74 W/m 14,8 km/h (3 Bft)
11.03.2015 18:00 5,9 C 57 % 1025,8 hPa 0,0 l/m N-NO 0,08 h 9 W/m 8,6 km/h (2 Bft)
11.03.2015 19:00 4,5 C 61 % 1026,6 hPa 0,0 l/m N-NO 0,00 h 0 W/m 4,9 km/h (1 Bft)
11.03.2015 20:00 3,5 C 60 % 1027,2 hPa 0,0 l/m N 0,00 h 0 W/m 2,3 km/h (1 Bft)
11.03.2015 21:00 2,2 C 64 % 1027,5 hPa 0,0 l/m N 0,00 h 0 W/m 0,9 km/h (0 Bft)
11.03.2015 22:00 0,9 C 68 % 1027,7 hPa 0,0 l/m N 0,00 h 0 W/m 0,5 km/h (0 Bft)
11.03.2015 23:00 0,1 C 73 % 1027,9 hPa 0,0 l/m N 0,00 h 0 W/m 1,9 km/h (1 Bft)
12.03.2015 00:00 -0,5 C 76 % 1028,1 hPa 0,0 l/m N 0,00 h 0 W/m 1,3 km/h (1 Bft)
12.03.2015 01:00 -0,9 C 78 % 1028,2 hPa 0,0 l/m N 0,00 h 0 W/m 1,5 km/h (1 Bft)
12.03.2015 02:00 -1,3 C 82 % 1028,2 hPa 0,0 l/m N-NO 0,00 h 0 W/m 2,4 km/h (1 Bft)
12.03.2015 03:00 -1,6 C 82 % 1028,1 hPa 0,0 l/m N 0,00 h 0 W/m 2,3 km/h (1 Bft)
12.03.2015 04:00 -2,0 C 82 % 1028,2 hPa 0,0 l/m N 0,00 h 0 W/m 0,7 km/h (0 Bft)
12.03.2015 05:00 -2,4 C 84 % 1028,2 hPa 0,0 l/m N 0,00 h 0 W/m 0,8 km/h (0 Bft)
12.03.2015 06:00 -2,8 C 84 % 1028,4 hPa 0,0 l/m N 0,00 h 8 W/m 0,0 km/h (0 Bft)
12.03.2015 07:00 -3,0 C 86 % 1028,6 hPa 0,0 l/m N 0,00 h 47 W/m 1,2 km/h (1 Bft)
12.03.2015 08:00 -1,3 C 87 % 1028,8 hPa 0,0 l/m N-NO 0,92 h 207 W/m 3,3 km/h (1 Bft)
12.03.2015 09:00 2,3 C 74 % 1028,8 hPa 0,0 l/m NO 1,00 h 373 W/m 8,2 km/h (2 Bft)
12.03.2015 10:00 4,8 C 69 % 1028,4 hPa 0,0 l/m O-NO 1,00 h 506 W/m 14,2 km/h (3 Bft)
12.03.2015 11:00 6,0 C 67 % 1028,2 hPa 0,0 l/m O 0,83 h 534 W/m 19,3 km/h (3 Bft)
12.03.2015 12:00 6,7 C 65 % 1027,6 hPa 0,0 l/m O 0,75 h 541 W/m 21,4 km/h (4 Bft)
12.03.2015 13:00 7,6 C 60 % 1026,8 hPa 0,0 l/m NO 0,92 h 657 W/m 22,5 km/h (4 Bft)
12.03.2015 14:00 7,5 C 58 % 1026,3 hPa 0,0 l/m O-NO 0,58 h 399 W/m 18,5 km/h (3 Bft)
12.03.2015 15:00 7,6 C 55 % 1026,0 hPa 0,0 l/m O 0,58 h 293 W/m 20,6 km/h (4 Bft)
12.03.2015 16:00 7,5 C 55 % 1025,6 hPa 0,0 l/m O 1,00 h 297 W/m 19,6 km/h (3 Bft)
12.03.2015 17:00 6,8 C 58 % 1025,2 hPa 0,0 l/m O-NO 0,67 h 95 W/m 16,8 km/h (3 Bft)
12.03.2015 18:00 5,5 C 62 % 1025,2 hPa 0,0 l/m O-NO 0,08 h 11 W/m 12,1 km/h (2 Bft)
12.03.2015 19:00 4,4 C 66 % 1025,2 hPa 0,0 l/m O-NO 0,00 h 0 W/m 6,4 km/h (2 Bft)
12.03.2015 20:00 3,5 C 71 % 1025,1 hPa 0,0 l/m O-NO 0,00 h 0 W/m 5,1 km/h (1 Bft)
12.03.2015 21:00 2,7 C 75 % 1025,0 hPa 0,0 l/m O-NO 0,00 h 0 W/m 3,6 km/h (1 Bft)
12.03.2015 22:00 1,8 C 78 % 1024,5 hPa 0,0 l/m N 0,00 h 0 W/m 3,5 km/h (1 Bft)
12.03.2015 23:00 1,1 C 80 % 1023,8 hPa 0,0 l/m N 0,00 h 0 W/m 2,5 km/h (1 Bft)
13.03.2015 00:00 0,3 C 82 % 1023,2 hPa 0,0 l/m N 0,00 h 0 W/m 2,0 km/h (1 Bft)
13.03.2015 01:00 -0,2 C 85 % 1022,7 hPa 0,0 l/m N 0,00 h 0 W/m 4,3 km/h (1 Bft)
13.03.2015 02:00 -0,5 C 87 % 1022,1 hPa 0,0 l/m O-NO 0,00 h 0 W/m 4,4 km/h (1 Bft)
13.03.2015 03:00 -0,9 C 87 % 1021,5 hPa 0,0 l/m O-NO 0,00 h 0 W/m 4,7 km/h (1 Bft)
13.03.2015 04:00 -1,4 C 88 % 1021,1 hPa 0,0 l/m N-NO 0,00 h 0 W/m 6,5 km/h (2 Bft)
13.03.2015 05:00 -1,7 C 90 % 1021,3 hPa 0,0 l/m N 0,00 h 0 W/m 10,5 km/h (2 Bft)
13.03.2015 06:00 -1,8 C 91 % 1021,3 hPa 0,0 l/m N-NO 0,08 h 8 W/m 10,5 km/h (2 Bft)
13.03.2015 07:00 -1,8 C 92 % 1021,5 hPa 0,0 l/m N 0,00 h 56 W/m 7,6 km/h (2 Bft)
13.03.2015 08:00 -0,8 C 92 % 1021,5 hPa 0,0 l/m NO 0,83 h 190 W/m 7,4 km/h (2 Bft)
13.03.2015 09:00 0,7 C 88 % 1021,1 hPa 0,0 l/m NO 1,00 h 360 W/m 12,4 km/h (3 Bft)
13.03.2015 10:00 2,4 C 81 % 1021,0 hPa 0,0 l/m O-NO 1,00 h 491 W/m 13,2 km/h (3 Bft)
13.03.2015 11:00 4,5 C 70 % 1020,4 hPa 0,0 l/m O-NO 1,00 h 601 W/m 15,7 km/h (3 Bft)
13.03.2015 12:00 6,1 C 63 % 1019,8 hPa 0,0 l/m O-NO 0,67 h 507 W/m 18,6 km/h (3 Bft)
13.03.2015 13:00 6,1 C 60 % 1019,3 hPa 0,0 l/m O 0,17 h 269 W/m 17,3 km/h (3 Bft)
13.03.2015 14:00 7,0 C 57 % 1019,0 hPa 0,0 l/m O 0,75 h 484 W/m 15,6 km/h (3 Bft)
13.03.2015 15:00 6,7 C 58 % 1018,8 hPa 0,0 l/m O-NO 0,58 h 320 W/m 18,2 km/h (3 Bft)
13.03.2015 16:00 6,8 C 57 % 1018,5 hPa 0,0 l/m O-NO 0,92 h 252 W/m 14,2 km/h (3 Bft)
13.03.2015 17:00 5,5 C 61 % 1018,7 hPa 0,0 l/m NO 0,58 h 85 W/m 18,4 km/h (3 Bft)
13.03.2015 18:00 4,4 C 65 % 1019,4 hPa 0,0 l/m O-NO 0,00 h 7 W/m 15,4 km/h (3 Bft)
13.03.2015 19:00 3,3 C 67 % 1019,8 hPa 0,0 l/m O-NO 0,00 h 0 W/m 13,8 km/h (3 Bft)
13.03.2015 20:00 2,3 C 70 % 1019,9 hPa 0,0 l/m O-NO 0,00 h 0 W/m 7,4 km/h (2 Bft)
13.03.2015 21:00 1,4 C 73 % 1020,3 hPa 0,0 l/m NO 0,00 h 0 W/m 4,5 km/h (1 Bft)
13.03.2015 22:00 0,7 C 76 % 1020,5 hPa 0,0 l/m N 0,00 h 0 W/m 3,9 km/h (1 Bft)
13.03.2015 23:00 0,0 C 79 % 1020,5 hPa 0,0 l/m NO 0,00 h 0 W/m 3,7 km/h (1 Bft)
14.03.2015 00:00 -0,5 C 82 % 1020,5 hPa 0,0 l/m NO 0,00 h 0 W/m 6,0 km/h (2 Bft)
14.03.2015 01:00 -0,8 C 85 % 1020,3 hPa 0,0 l/m NO 0,00 h 0 W/m 5,7 km/h (1 Bft)
14.03.2015 02:00 -1,0 C 87 % 1020,1 hPa 0,0 l/m NO 0,00 h 0 W/m 4,4 km/h (1 Bft)
14.03.2015 03:00 -1,5 C 88 % 1020,0 hPa 0,0 l/m NO 0,00 h 0 W/m 4,4 km/h (1 Bft)
14.03.2015 04:00 -1,8 C 90 % 1020,3 hPa 0,0 l/m NO 0,00 h 0 W/m 4,1 km/h (1 Bft)
14.03.2015 05:00 -2,2 C 91 % 1020,8 hPa 0,0 l/m NO 0,00 h 0 W/m 3,3 km/h (1 Bft)
14.03.2015 06:00 -2,3 C 93 % 1021,1 hPa 0,0 l/m NO 0,00 h 8 W/m 3,5 km/h (1 Bft)
14.03.2015 07:00 -1,7 C 94 % 1021,4 hPa 0,0 l/m NO 0,00 h 30 W/m 7,1 km/h (2 Bft)
14.03.2015 08:00 -0,0 C 93 % 1021,5 hPa 0,0 l/m O-NO 0,00 h 83 W/m 10,9 km/h (2 Bft)
14.03.2015 09:00 0,9 C 89 % 1021,7 hPa 0,0 l/m O-NO 0,00 h 96 W/m 13,7 km/h (3 Bft)
14.03.2015 10:00 1,7 C 85 % 1021,6 hPa 0,0 l/m O-NO 0,00 h 130 W/m 14,2 km/h (3 Bft)
14.03.2015 11:00 2,5 C 80 % 1021,5 hPa 0,0 l/m O-NO 0,00 h 155 W/m 15,8 km/h (3 Bft)
14.03.2015 12:00 3,4 C 76 % 1021,0 hPa 0,0 l/m O-NO 0,00 h 156 W/m 15,2 km/h (3 Bft)
14.03.2015 13:00 4,3 C 73 % 1020,8 hPa 0,0 l/m O-NO 0,33 h 325 W/m 14,8 km/h (3 Bft)
14.03.2015 14:00 6,1 C 66 % 1020,4 hPa 0,0 l/m O 0,42 h 341 W/m 15,0 km/h (3 Bft)
14.03.2015 15:00 6,4 C 63 % 1020,7 hPa 0,0 l/m O-NO 0,58 h 309 W/m 13,2 km/h (3 Bft)
14.03.2015 16:00 6,1 C 67 % 1020,9 hPa 0,0 l/m NO 0,08 h 128 W/m 17,4 km/h (3 Bft)
14.03.2015 17:00 5,4 C 72 % 1021,4 hPa 0,0 l/m O-NO 0,00 h 49 W/m 14,4 km/h (3 Bft)
14.03.2015 18:00 4,6 C 76 % 1022,0 hPa 0,0 l/m O-NO 0,00 h 11 W/m 8,8 km/h (2 Bft)
14.03.2015 19:00 3,7 C 80 % 1022,4 hPa 0,0 l/m O-NO 0,00 h 0 W/m 6,1 km/h (2 Bft)
14.03.2015 20:00 2,9 C 84 % 1022,7 hPa 0,0 l/m N-NO 0,00 h 0 W/m 8,3 km/h (2 Bft)
14.03.2015 21:00 2,2 C 86 % 1022,6 hPa 0,0 l/m N-NO 0,00 h 0 W/m 7,0 km/h (2 Bft)
14.03.2015 22:00 1,5 C 88 % 1022,1 hPa 0,0 l/m NO 0,00 h 0 W/m 5,9 km/h (2 Bft)
14.03.2015 23:00 0,8 C 89 % 1021,7 hPa 0,0 l/m NO 0,00 h 0 W/m 4,9 km/h (1 Bft)
15.03.2015 00:00 0,3 C 91 % 1021,5 hPa 0,0 l/m NO 0,00 h 0 W/m 6,0 km/h (2 Bft)
15.03.2015 01:00 0,3 C 93 % 1021,5 hPa 0,0 l/m N-NO 0,00 h 0 W/m 7,8 km/h (2 Bft)
15.03.2015 02:00 0,2 C 94 % 1021,4 hPa 0,0 l/m N-NO 0,00 h 0 W/m 8,2 km/h (2 Bft)
15.03.2015 03:00 0,2 C 94 % 1021,3 hPa 0,0 l/m NO 0,00 h 0 W/m 7,3 km/h (2 Bft)
15.03.2015 04:00 0,1 C 94 % 1021,4 hPa 0,0 l/m NO 0,00 h 0 W/m 7,4 km/h (2 Bft)
15.03.2015 05:00 -0,2 C 95 % 1021,5 hPa 0,0 l/m NO 0,00 h 0 W/m 7,6 km/h (2 Bft)
15.03.2015 06:00 -0,1 C 95 % 1021,7 hPa 0,0 l/m NO 0,00 h 5 W/m 8,4 km/h (2 Bft)
15.03.2015 07:00 0,0 C 96 % 1022,0 hPa 0,0 l/m NO 0,00 h 27 W/m 7,8 km/h (2 Bft)
15.03.2015 08:00 0,6 C 96 % 1022,1 hPa 0,0 l/m NO 0,00 h 73 W/m 11,8 km/h (2 Bft)
15.03.2015 09:00 1,4 C 95 % 1022,0 hPa 0,0 l/m O 0,00 h 97 W/m 14,6 km/h (3 Bft)
15.03.2015 10:00 2,1 C 90 % 1021,8 hPa 0,0 l/m O-NO 0,00 h 110 W/m 16,8 km/h (3 Bft)
15.03.2015 11:00 3,0 C 85 % 1021,6 hPa 0,0 l/m O-NO 0,00 h 179 W/m 18,1 km/h (3 Bft)
15.03.2015 12:00 3,8 C 82 % 1021,3 hPa 0,0 l/m O-NO 0,25 h 293 W/m 15,4 km/h (3 Bft)
15.03.2015 13:00 5,7 C 76 % 1020,6 hPa 0,0 l/m O-NO 0,92 h 576 W/m 16,0 km/h (3 Bft)
15.03.2015 14:00 7,2 C 71 % 1019,8 hPa 0,0 l/m O-NO 1,00 h 519 W/m 17,2 km/h (3 Bft)
15.03.2015 15:00 7,9 C 69 % 1019,5 hPa 0,0 l/m O 1,00 h 404 W/m 17,2 km/h (3 Bft)
15.03.2015 16:00 8,1 C 68 % 1019,5 hPa 0,0 l/m O 0,75 h 215 W/m 16,4 km/h (3 Bft)
15.03.2015 17:00 6,9 C 74 % 1019,7 hPa 0,0 l/m O 0,25 h 72 W/m 14,4 km/h (3 Bft)
15.03.2015 18:00 5,6 C 78 % 1020,1 hPa 0,0 l/m O-NO 0,17 h 13 W/m 7,1 km/h (2 Bft)
15.03.2015 19:00 4,1 C 82 % 1019,9 hPa 0,0 l/m NO 0,00 h 0 W/m 6,8 km/h (2 Bft)
15.03.2015 20:00 3,5 C 84 % 1019,6 hPa 0,0 l/m N-NO 0,00 h 0 W/m 6,7 km/h (2 Bft)
15.03.2015 21:00 2,9 C 84 % 1019,6 hPa 0,0 l/m N-NO 0,00 h 0 W/m 2,4 km/h (1 Bft)
15.03.2015 22:00 2,1 C 87 % 1019,5 hPa 0,0 l/m N-NO 0,00 h 0 W/m 4,3 km/h (1 Bft)
15.03.2015 23:00 1,5 C 89 % 1019,6 hPa 0,0 l/m N 0,00 h 0 W/m 3,3 km/h (1 Bft)
Min-Datum _ 12.03.15 09.03.15 13.03.15 - - - - 09.03.15
_ Min-Zeit 07:10 15:15 16:35 - - - - 00:00
Minimum _ -3,2 C 36 % 1018,3 hPa - - - - 0,0 km/h (0 Bft)
Max-Datum _ 09.03.15 09.03.15 12.03.15 11.03.15 - 09.03.15 12.03.15 12.03.15
_ Max-Zeit 14:50 09:05 08:45 05:00 - 08:00 13:10 12:35
Maximum _ 14,9 C 96 % 1029,0 hPa 0,4 l/m - 0,08 h 765 W/m 27,4 km/h
O (4 Bft)
Durchschnitt _ 3,9 C 76 % 1023,4 hPa #0,8 l/m O-NO #42:15 h 253 W/m 7,8 km/h (2 Bft)